createdAt,value
2022-12-24T00:02:55.370Z,7.40
2022-12-24T00:06:00.098Z,7.40
2022-12-24T00:09:03.395Z,7.50
2022-12-24T00:12:07.488Z,7.50
2022-12-24T00:15:11.751Z,7.60
2022-12-24T00:18:14.925Z,7.60
2022-12-24T00:21:19.431Z,7.60
2022-12-24T00:24:22.586Z,7.60
2022-12-24T00:27:25.747Z,7.60
2022-12-24T00:30:28.960Z,7.60
2022-12-24T00:33:32.092Z,7.50
2022-12-24T00:36:36.580Z,7.50
2022-12-24T00:39:39.719Z,7.40
2022-12-24T00:42:42.881Z,7.30
2022-12-24T00:45:46.083Z,7.30
2022-12-24T00:48:49.925Z,7.30
2022-12-24T00:51:54.413Z,7.30
2022-12-24T00:54:57.589Z,7.30
2022-12-24T00:58:00.689Z,7.20
2022-12-24T01:01:04.210Z,7.20
2022-12-24T01:04:25.035Z,7.20
2022-12-24T01:07:29.575Z,7.20
2022-12-24T01:10:32.705Z,7.10
2022-12-24T01:13:36.080Z,7.00
2022-12-24T01:16:39.238Z,6.90
2022-12-24T01:19:42.377Z,7.00
2022-12-24T01:22:47.236Z,6.90
2022-12-24T01:25:50.408Z,6.90
2022-12-24T01:28:53.585Z,6.90
2022-12-24T01:31:56.781Z,6.90
2022-12-24T01:35:00.246Z,6.90
2022-12-24T01:38:04.776Z,6.90
2022-12-24T01:41:25.511Z,6.90
2022-12-24T01:44:36.112Z,6.90
2022-12-24T01:47:40.000Z,6.80
2022-12-24T01:50:43.475Z,6.80
2022-12-24T01:53:53.751Z,6.80
2022-12-24T01:57:00.652Z,6.70
2022-12-24T02:00:08.230Z,6.80
2022-12-24T02:03:11.574Z,6.70
2022-12-24T02:06:16.630Z,6.70
2022-12-24T02:09:21.185Z,6.80
2022-12-24T02:12:24.720Z,6.80
2022-12-24T02:15:30.113Z,6.80
2022-12-24T02:18:39.918Z,6.80
2022-12-24T02:21:53.081Z,6.80
2022-12-24T02:25:17.447Z,6.80
2022-12-24T02:28:37.701Z,6.70
2022-12-24T02:31:46.312Z,6.70
2022-12-24T02:34:53.506Z,6.60
2022-12-24T02:38:00.722Z,6.60
2022-12-24T02:41:08.481Z,6.70
2022-12-24T02:44:11.662Z,6.60
2022-12-24T02:47:18.078Z,6.50
2022-12-24T02:50:21.250Z,6.50
2022-12-24T02:53:24.603Z,6.50
2022-12-24T02:56:46.849Z,6.40
2022-12-24T03:00:03.983Z,6.30
2022-12-24T03:03:21.377Z,6.20
2022-12-24T03:06:33.838Z,6.10
2022-12-24T03:09:45.047Z,6.10
2022-12-24T03:12:51.605Z,5.90
2022-12-24T03:15:54.825Z,6.00
2022-12-24T03:19:01.182Z,5.90
2022-12-24T03:22:06.890Z,5.90
2022-12-24T03:25:10.307Z,5.90
2022-12-24T03:28:15.791Z,5.90
2022-12-24T03:31:19.753Z,5.90
2022-12-24T03:34:24.320Z,5.70
2022-12-24T03:37:27.876Z,5.70
2022-12-24T03:40:31.033Z,5.60
2022-12-24T03:43:34.712Z,5.60
2022-12-24T03:46:37.910Z,5.70
2022-12-24T03:49:42.520Z,5.60
2022-12-24T03:52:45.769Z,5.60
2022-12-24T03:55:48.952Z,5.60
2022-12-24T03:58:52.255Z,5.60
2022-12-24T04:01:55.683Z,5.50
2022-12-24T04:05:00.364Z,5.50
2022-12-24T04:08:03.494Z,5.50
2022-12-24T04:11:10.152Z,5.50
2022-12-24T04:14:13.402Z,5.50
2022-12-24T04:17:16.585Z,5.50
2022-12-24T04:20:21.127Z,5.50
2022-12-24T04:23:25.066Z,5.50
2022-12-24T04:26:28.231Z,5.60
2022-12-24T04:29:31.426Z,5.50
2022-12-24T04:32:34.601Z,5.50
2022-12-24T04:35:42.390Z,5.50
2022-12-24T04:38:45.894Z,5.50
2022-12-24T04:41:49.020Z,5.40
2022-12-24T04:44:52.193Z,5.40
2022-12-24T04:47:55.423Z,5.30
2022-12-24T04:51:02.732Z,5.30
2022-12-24T04:54:06.009Z,5.30
2022-12-24T04:57:09.151Z,5.30
2022-12-24T05:00:13.559Z,5.30
2022-12-24T05:03:16.892Z,5.20
2022-12-24T05:06:23.974Z,5.20
2022-12-24T05:09:27.168Z,5.20
2022-12-24T05:12:30.303Z,5.20
2022-12-24T05:15:33.460Z,5.20
2022-12-24T05:18:36.673Z,5.20
2022-12-24T05:21:41.210Z,5.20
2022-12-24T05:25:01.840Z,5.20
2022-12-24T05:28:04.987Z,5.20
2022-12-24T05:31:08.137Z,5.10
2022-12-24T05:34:12.450Z,5.20
2022-12-24T05:37:16.972Z,5.20
2022-12-24T05:40:20.106Z,5.20
2022-12-24T05:43:23.223Z,5.20
2022-12-24T05:46:26.923Z,5.10
2022-12-24T05:49:30.917Z,5.10
2022-12-24T05:52:35.391Z,5.10
2022-12-24T05:55:38.521Z,5.10
2022-12-24T05:58:42.935Z,5.10
2022-12-24T06:01:48.081Z,5.00
2022-12-24T06:04:51.432Z,5.00
2022-12-24T06:07:55.905Z,5.10
2022-12-24T06:10:59.966Z,5.00
2022-12-24T06:14:03.141Z,5.00
2022-12-24T06:17:06.329Z,4.90
2022-12-24T06:20:10.298Z,4.90
2022-12-24T06:23:14.861Z,4.90
2022-12-24T06:26:20.016Z,4.90
2022-12-24T06:29:23.273Z,4.80
2022-12-24T06:32:26.442Z,4.80
2022-12-24T06:35:29.602Z,4.80
2022-12-24T06:38:34.266Z,4.80
2022-12-24T06:41:37.463Z,4.80
2022-12-24T06:44:40.691Z,4.80
2022-12-24T06:47:43.823Z,4.80
2022-12-24T06:50:47.055Z,4.80
2022-12-24T06:53:51.706Z,4.80
2022-12-24T06:56:57.681Z,4.80
2022-12-24T07:00:01.397Z,4.80
2022-12-24T07:03:04.863Z,4.80
2022-12-24T07:06:08.783Z,4.80
2022-12-24T07:09:14.872Z,4.80
2022-12-24T07:12:18.105Z,4.80
2022-12-24T07:15:21.415Z,4.80
2022-12-24T07:18:24.576Z,4.90
2022-12-24T07:21:27.717Z,5.00
2022-12-24T07:24:32.273Z,5.00
2022-12-24T07:27:35.370Z,5.10
2022-12-24T07:30:38.504Z,5.10
2022-12-24T07:33:41.622Z,5.10
2022-12-24T07:36:44.742Z,5.20
2022-12-24T07:39:49.263Z,5.40
2022-12-24T07:42:52.375Z,5.50
2022-12-24T07:45:57.838Z,5.70
2022-12-24T07:49:01.490Z,5.90
2022-12-24T07:52:05.012Z,6.00
2022-12-24T07:55:10.279Z,6.10
2022-12-24T07:58:13.467Z,6.10
2022-12-24T08:01:16.688Z,6.20
2022-12-24T08:04:19.866Z,6.30
2022-12-24T08:07:23.001Z,6.30
2022-12-24T08:10:27.527Z,6.30
2022-12-24T08:13:30.862Z,6.50
2022-12-24T08:16:34.057Z,6.70
2022-12-24T08:19:37.462Z,6.90
2022-12-24T08:22:40.617Z,7.00
2022-12-24T08:25:46.699Z,7.00
2022-12-24T08:28:49.848Z,7.10
2022-12-24T08:31:53.104Z,7.20
2022-12-24T08:34:56.287Z,7.20
2022-12-24T08:37:59.649Z,7.20
2022-12-24T08:41:04.215Z,7.10
2022-12-24T08:44:07.380Z,7.10
2022-12-24T08:47:10.527Z,7.10
2022-12-24T08:50:14.150Z,7.10
2022-12-24T08:53:17.325Z,7.10
2022-12-24T08:56:22.727Z,7.20
2022-12-24T08:59:25.965Z,7.20
2022-12-24T09:02:29.303Z,7.40
2022-12-24T09:05:32.739Z,7.60
2022-12-24T09:08:36.720Z,7.60
2022-12-24T09:11:41.296Z,7.80
2022-12-24T09:14:44.478Z,7.90
2022-12-24T09:17:47.676Z,8.00
2022-12-24T09:20:56.882Z,8.00
2022-12-24T09:24:01.389Z,8.00
2022-12-24T09:27:05.985Z,8.10
2022-12-24T09:30:10.529Z,8.20
2022-12-24T09:33:13.755Z,8.20
2022-12-24T09:36:17.651Z,8.10
2022-12-24T09:39:20.863Z,8.00
2022-12-24T09:42:35.931Z,7.90
2022-12-24T09:45:42.862Z,8.00
2022-12-24T09:48:49.943Z,8.30
2022-12-24T09:51:57.738Z,8.50
2022-12-24T09:55:08.066Z,8.70
2022-12-24T09:58:21.716Z,8.90
2022-12-24T10:01:25.009Z,9.10
2022-12-24T10:04:33.820Z,9.20
2022-12-24T10:07:50.157Z,9.30
2022-12-24T10:10:55.462Z,9.40
2022-12-24T10:14:11.393Z,9.40
2022-12-24T10:17:31.787Z,9.50
2022-12-24T10:20:43.554Z,9.60
2022-12-24T10:23:52.543Z,9.90
2022-12-24T10:27:00.850Z,10.10
2022-12-24T10:30:17.174Z,10.20
2022-12-24T10:33:24.289Z,10.30
2022-12-24T10:36:30.087Z,10.40
2022-12-24T10:39:33.397Z,10.60
2022-12-24T10:42:50.115Z,10.60
2022-12-24T10:46:00.572Z,10.50
2022-12-24T10:49:06.281Z,10.30
2022-12-24T10:52:13.823Z,10.40
2022-12-24T10:55:25.245Z,10.50
2022-12-24T10:58:28.475Z,10.40
2022-12-24T11:01:47.830Z,10.30
2022-12-24T11:04:51.742Z,10.50
2022-12-24T11:08:01.456Z,10.70
2022-12-24T11:11:07.124Z,10.90
2022-12-24T11:14:17.467Z,11.20
2022-12-24T11:17:24.417Z,11.50
2022-12-24T11:20:30.484Z,12.10
2022-12-24T11:23:33.736Z,13.90
2022-12-24T11:26:37.213Z,14.80
2022-12-24T11:29:40.381Z,14.60
2022-12-24T11:32:46.553Z,14.30
2022-12-24T11:36:05.607Z,15.10
2022-12-24T11:39:20.269Z,15.60
2022-12-24T11:42:34.739Z,15.60
2022-12-24T11:45:37.895Z,14.80
2022-12-24T11:48:42.437Z,14.30
2022-12-24T11:52:12.546Z,14.70
2022-12-24T11:55:20.246Z,14.10
2022-12-24T11:58:29.903Z,14.10
2022-12-24T12:01:37.397Z,14.00
2022-12-24T12:04:45.136Z,13.60
2022-12-24T12:07:51.307Z,13.20
2022-12-24T12:10:56.017Z,12.90
2022-12-24T12:14:02.618Z,12.80
2022-12-24T12:17:18.117Z,12.70
2022-12-24T12:20:26.332Z,14.30
2022-12-24T12:23:32.394Z,15.30
2022-12-24T12:26:35.694Z,15.20
2022-12-24T12:29:46.918Z,16.20
2022-12-24T12:32:54.926Z,20.20
2022-12-24T12:36:02.822Z,24.60
2022-12-24T12:39:05.991Z,28.00
2022-12-24T12:42:17.538Z,30.50
2022-12-24T12:45:41.034Z,32.10
2022-12-24T12:49:02.229Z,32.90
2022-12-24T12:52:17.925Z,33.50
2022-12-24T12:55:33.584Z,33.90
2022-12-24T12:58:42.839Z,34.60
2022-12-24T13:01:54.886Z,35.30
2022-12-24T13:05:37.416Z,35.60
2022-12-24T13:09:05.898Z,33.40
2022-12-24T13:12:28.118Z,29.90
2022-12-24T13:15:48.254Z,27.40
2022-12-24T13:19:10.760Z,27.20
2022-12-24T13:22:18.483Z,27.70
2022-12-24T13:25:27.512Z,29.00
2022-12-24T13:28:37.104Z,29.50
2022-12-24T13:31:40.319Z,27.30
2022-12-24T13:34:49.817Z,25.30
2022-12-24T13:37:53.587Z,24.10
2022-12-24T13:41:18.229Z,24.80
2022-12-24T13:44:33.888Z,26.40
2022-12-24T13:47:41.511Z,28.00
2022-12-24T13:50:47.009Z,26.80
2022-12-24T13:53:50.860Z,27.40
2022-12-24T13:56:54.152Z,27.60
2022-12-24T14:00:02.316Z,26.10
2022-12-24T14:03:18.051Z,24.00
2022-12-24T14:06:25.237Z,22.50
2022-12-24T14:09:30.510Z,22.00
2022-12-24T14:12:47.878Z,21.80
2022-12-24T14:16:05.411Z,22.30
2022-12-24T14:19:15.639Z,23.00
2022-12-24T14:22:29.936Z,23.20
2022-12-24T14:25:33.215Z,22.50
2022-12-24T14:28:41.422Z,21.20
2022-12-24T14:31:53.922Z,19.90
2022-12-24T14:35:15.453Z,18.60
2022-12-24T14:38:21.341Z,17.60
2022-12-24T14:41:34.302Z,16.70
2022-12-24T14:44:47.394Z,15.90
2022-12-24T14:48:00.842Z,15.20
2022-12-24T14:51:13.147Z,14.70
2022-12-24T14:54:32.485Z,14.10
2022-12-24T14:57:35.756Z,13.60
2022-12-24T15:00:39.680Z,13.30
2022-12-24T15:03:44.630Z,12.90
2022-12-24T15:06:50.701Z,12.50
2022-12-24T15:09:54.224Z,12.20
2022-12-24T15:12:59.019Z,12.00
2022-12-24T15:16:04.258Z,11.80
2022-12-24T15:19:16.796Z,11.50
2022-12-24T15:22:25.737Z,11.40
2022-12-24T15:25:30.763Z,11.20
2022-12-24T15:28:39.320Z,11.00
2022-12-24T15:31:42.514Z,10.90
2022-12-24T15:34:48.404Z,10.70
2022-12-24T15:37:51.708Z,10.60
2022-12-24T15:40:55.896Z,10.50
2022-12-24T15:44:02.755Z,10.40
2022-12-24T15:47:08.861Z,10.30
2022-12-24T15:50:23.849Z,10.20
2022-12-24T15:53:32.181Z,10.10
2022-12-24T15:56:43.941Z,10.00
2022-12-24T15:59:53.473Z,9.90
2022-12-24T16:02:58.132Z,9.80
2022-12-24T16:06:03.894Z,9.60
2022-12-24T16:09:41.838Z,9.50
2022-12-24T16:12:45.047Z,9.50
2022-12-24T16:15:52.250Z,9.40
2022-12-24T16:18:58.004Z,9.30
2022-12-24T16:22:24.120Z,9.20
2022-12-24T16:25:29.904Z,9.10
2022-12-24T16:28:33.259Z,9.00
2022-12-24T16:31:40.223Z,8.90
2022-12-24T16:34:43.497Z,8.80
2022-12-24T16:37:46.650Z,8.80
2022-12-24T16:40:51.202Z,8.70
2022-12-24T16:43:53.359Z,8.70
2022-12-24T16:46:59.729Z,8.50
2022-12-24T16:50:03.702Z,8.40
2022-12-24T16:53:08.448Z,8.40
2022-12-24T16:56:14.641Z,8.30
2022-12-24T16:59:19.381Z,8.30
2022-12-24T17:02:24.663Z,8.30
2022-12-24T17:05:28.499Z,8.30
2022-12-24T17:08:31.644Z,8.10
2022-12-24T17:11:36.226Z,8.10
2022-12-24T17:14:40.482Z,8.00
2022-12-24T17:17:43.659Z,8.00
2022-12-24T17:20:46.879Z,7.90
2022-12-24T17:23:50.071Z,7.90
2022-12-24T17:26:54.652Z,7.80
2022-12-24T17:29:57.844Z,7.70
2022-12-24T17:33:01.015Z,7.70
2022-12-24T17:36:04.603Z,7.70
2022-12-24T17:39:07.849Z,7.60
2022-12-24T17:42:12.640Z,7.60
2022-12-24T17:45:15.980Z,7.60
2022-12-24T17:48:19.172Z,7.50
2022-12-24T17:51:24.441Z,7.50
2022-12-24T17:54:27.659Z,7.50
2022-12-24T17:57:32.266Z,7.40
2022-12-24T18:00:35.455Z,7.40
2022-12-24T18:03:38.740Z,7.40
2022-12-24T18:06:48.826Z,7.40
2022-12-24T18:09:52.471Z,7.40
2022-12-24T18:12:57.393Z,7.30
2022-12-24T18:16:00.629Z,7.30
2022-12-24T18:19:05.977Z,7.30
2022-12-24T18:22:09.129Z,7.40
2022-12-24T18:25:12.411Z,7.40
2022-12-24T18:28:16.984Z,7.40
2022-12-24T18:31:21.477Z,7.40
2022-12-24T18:34:24.715Z,7.40
2022-12-24T18:37:27.954Z,7.40
2022-12-24T18:40:31.175Z,7.40
2022-12-24T18:43:36.264Z,7.40
2022-12-24T18:46:39.529Z,7.40
2022-12-24T18:49:42.860Z,7.40
2022-12-24T18:52:46.063Z,7.30
2022-12-24T18:55:49.270Z,7.30
2022-12-24T18:58:56.276Z,7.30
2022-12-24T19:01:59.566Z,7.30
2022-12-24T19:05:02.882Z,7.30
2022-12-24T19:08:22.235Z,7.30
2022-12-24T19:11:32.200Z,7.40
2022-12-24T19:14:36.892Z,7.40
2022-12-24T19:17:40.233Z,7.30
2022-12-24T19:20:43.433Z,7.40
2022-12-24T19:23:47.477Z,7.40
2022-12-24T19:26:50.707Z,7.40
2022-12-24T19:29:55.264Z,7.30
2022-12-24T19:32:58.406Z,7.40
2022-12-24T19:36:07.088Z,7.40
2022-12-24T19:39:10.255Z,7.40
2022-12-24T19:42:13.403Z,7.40
2022-12-24T19:45:18.101Z,7.30
2022-12-24T19:48:21.261Z,7.40
2022-12-24T19:51:25.683Z,7.30
2022-12-24T19:54:28.800Z,7.40
2022-12-24T19:57:32.006Z,7.30
2022-12-24T20:00:36.565Z,7.30
2022-12-24T20:03:39.797Z,7.30
2022-12-24T20:06:42.967Z,7.40
2022-12-24T20:09:46.379Z,7.40
2022-12-24T20:12:49.570Z,7.40
2022-12-24T20:15:54.266Z,7.40
2022-12-24T20:18:59.089Z,7.40
2022-12-24T20:22:02.307Z,7.40
2022-12-24T20:25:05.879Z,7.40
2022-12-24T20:28:09.076Z,7.40
2022-12-24T20:31:16.594Z,7.40
2022-12-24T20:34:19.784Z,7.40
2022-12-24T20:37:23.003Z,7.30
2022-12-24T20:40:26.484Z,7.40
2022-12-24T20:43:35.310Z,7.40
2022-12-24T20:46:41.987Z,7.40
2022-12-24T20:49:45.155Z,7.40
2022-12-24T20:52:48.358Z,7.40
2022-12-24T20:55:51.796Z,7.40
2022-12-24T20:58:54.970Z,7.40
2022-12-24T21:01:59.734Z,7.40
2022-12-24T21:05:03.101Z,7.50
2022-12-24T21:08:06.427Z,7.50
2022-12-24T21:11:26.889Z,7.50
2022-12-24T21:14:30.120Z,7.50
2022-12-24T21:17:34.663Z,7.50
2022-12-24T21:20:38.337Z,7.50
2022-12-24T21:23:41.546Z,7.50
2022-12-24T21:26:45.228Z,7.50
2022-12-24T21:29:48.466Z,7.50
2022-12-24T21:32:53.353Z,7.50
2022-12-24T21:35:59.882Z,7.60
2022-12-24T21:39:03.080Z,7.60
2022-12-24T21:42:06.344Z,7.50
2022-12-24T21:45:10.916Z,7.50
2022-12-24T21:48:29.367Z,7.50
2022-12-24T21:51:33.686Z,7.50
2022-12-24T21:54:36.884Z,7.50
2022-12-24T21:57:55.134Z,7.60
2022-12-24T22:00:58.360Z,7.60
2022-12-24T22:04:02.959Z,7.60
2022-12-24T22:07:24.004Z,7.60
2022-12-24T22:10:44.728Z,7.60
2022-12-24T22:13:47.875Z,7.60
2022-12-24T22:16:51.086Z,7.60
2022-12-24T22:19:55.917Z,7.60
2022-12-24T22:22:59.104Z,7.60
2022-12-24T22:26:02.310Z,7.70
2022-12-24T22:29:06.136Z,7.70
2022-12-24T22:32:09.276Z,7.60
2022-12-24T22:35:13.847Z,7.60
2022-12-24T22:38:16.947Z,7.60
2022-12-24T22:41:20.360Z,7.60
2022-12-24T22:44:23.528Z,7.50
2022-12-24T22:47:26.918Z,7.50
2022-12-24T22:50:31.498Z,7.60
2022-12-24T22:53:35.095Z,7.50
2022-12-24T22:56:41.329Z,7.50
2022-12-24T22:59:45.071Z,7.50
2022-12-24T23:02:48.317Z,7.60
2022-12-24T23:05:58.648Z,7.60
2022-12-24T23:09:02.132Z,7.60
2022-12-24T23:12:05.835Z,7.60
2022-12-24T23:15:09.148Z,7.60
2022-12-24T23:18:12.639Z,7.60
2022-12-24T23:21:17.143Z,7.60
2022-12-24T23:24:20.318Z,7.60
2022-12-24T23:27:23.467Z,7.70
2022-12-24T23:30:26.685Z,7.70
2022-12-24T23:33:30.263Z,7.70
2022-12-24T23:36:35.022Z,7.70
2022-12-24T23:39:38.185Z,7.70
2022-12-24T23:42:41.377Z,7.70
2022-12-24T23:45:48.379Z,7.60
2022-12-24T23:48:55.068Z,7.70
2022-12-24T23:51:59.595Z,7.70
2022-12-24T23:55:03.511Z,7.80
2022-12-24T23:58:07.366Z,7.70
